Time;durP1;ratioP1;P1;durP2;ratioP2;P2;SDS_P1;SDS_P2;PMS_P1;PMS_P2;Temp;Humidity;BMP_temperature;BMP_pressure;BME280_temperature;BME280_humidity;BME280_pressure;Samples;Min_cycle;Max_cycle;Signal;HPM_P1;HPM_P2
2023/03/09 00:01:44;;;;;;;149.65;37.83;;;;;;;1.75;100.00;98938.44;5212529;28;20025;-77
2023/03/09 00:04:16;;;;;;;140.60;36.22;;;;;;;1.75;100.00;98950.81;5198825;28;20075;-77
2023/03/09 00:06:46;;;;;;;153.32;38.13;;;;;;;1.76;100.00;98934.00;5210903;28;20035;-77
2023/03/09 00:09:17;;;;;;;144.80;37.10;;;;;;;1.73;100.00;98940.41;5215240;28;20025;-77
2023/03/09 00:11:49;;;;;;;145.85;35.30;;;;;;;1.71;100.00;98926.53;5213009;28;20111;-77
2023/03/09 00:14:22;;;;;;;138.43;36.35;;;;;;;1.72;100.00;98944.03;5199381;28;20017;-77
2023/03/09 00:16:52;;;;;;;142.13;36.10;;;;;;;1.69;100.00;98944.34;5217841;28;20043;-77
2023/03/09 00:22:12;;;;;;;138.93;35.83;;;;;;;1.69;100.00;98952.28;5190449;28;20032;-77
2023/03/09 00:24:45;;;;;;;141.82;35.10;;;;;;;1.70;100.00;98987.47;5206300;28;20105;-77
2023/03/09 00:27:15;;;;;;;137.90;36.28;;;;;;;1.72;100.00;99028.63;5207839;28;20060;-77
2023/03/09 00:29:46;;;;;;;123.97;33.78;;;;;;;1.84;100.00;99090.03;5207641;28;20041;-77
2023/03/09 00:32:16;;;;;;;135.90;34.90;;;;;;;1.89;100.00;99094.84;5208175;28;20422;-77
2023/03/09 00:34:47;;;;;;;125.78;34.65;;;;;;;1.92;100.00;99097.22;5192618;28;20505;-77
2023/03/09 00:37:18;;;;;;;126.80;34.95;;;;;;;1.90;100.00;99104.44;5199366;28;20040;-75
2023/03/09 00:39:48;;;;;;;144.05;37.30;;;;;;;1.87;100.00;99107.41;5174391;28;20436;-75
2023/03/09 00:42:19;;;;;;;122.18;33.22;;;;;;;1.89;100.00;99116.03;5223052;28;20370;-75
2023/03/09 00:44:50;;;;;;;122.70;33.30;;;;;;;1.85;100.00;99122.59;5221525;28;20819;-75
2023/03/09 00:47:21;;;;;;;114.78;33.80;;;;;;;1.81;100.00;99120.25;5221400;28;20024;-75
2023/03/09 00:49:51;;;;;;;124.38;33.60;;;;;;;1.81;100.00;99117.63;5221415;28;20024;-76
2023/03/09 00:52:22;;;;;;;116.40;32.33;;;;;;;1.81;100.00;99128.19;5222182;28;20025;-77
2023/03/09 00:54:53;;;;;;;127.07;33.17;;;;;;;1.80;100.00;99131.81;5220411;28;20033;-77
2023/03/09 00:57:25;;;;;;;134.55;34.50;;;;;;;1.77;100.00;99139.22;5221431;28;20604;-77
2023/03/09 00:59:55;;;;;;;134.68;32.75;;;;;;;1.77;100.00;99137.41;5220127;28;20025;-77
2023/03/09 01:02:26;;;;;;;128.32;31.90;;;;;;;1.75;100.00;99128.78;5204389;28;20024;-77
2023/03/09 01:04:57;;;;;;;123.32;33.00;;;;;;;1.76;100.00;99135.75;5221096;28;20017;-77
2023/03/09 01:07:29;;;;;;;124.60;33.78;;;;;;;1.75;100.00;99139.34;5201986;28;20027;-76
2023/03/09 01:10:00;;;;;;;123.93;32.10;;;;;;;1.75;100.00;99138.53;5221785;28;20388;-77
2023/03/09 01:12:31;;;;;;;128.75;35.75;;;;;;;1.74;100.00;99137.69;5204160;28;20057;-77
2023/03/09 01:15:01;;;;;;;123.15;31.35;;;;;;;1.74;100.00;99143.00;5221913;28;20028;-76
2023/03/09 01:17:32;;;;;;;119.22;30.95;;;;;;;1.74;100.00;99150.09;5203459;28;20147;-77
2023/03/09 01:20:04;;;;;;;109.68;30.05;;;;;;;1.73;100.00;99159.84;5222829;28;20020;-77
2023/03/09 01:22:34;;;;;;;121.85;31.45;;;;;;;1.74;100.00;99158.84;5224871;28;20112;-77
2023/03/09 01:25:06;;;;;;;142.50;32.17;;;;;;;1.76;100.00;99159.56;5225925;28;20112;-77
2023/03/09 01:27:36;;;;;;;120.40;32.15;;;;;;;1.72;100.00;99155.53;5206876;28;20039;-77
2023/03/09 01:30:07;;;;;;;128.70;32.45;;;;;;;1.74;100.00;99161.50;5224491;28;20025;-77
2023/03/09 01:32:38;;;;;;;114.20;29.73;;;;;;;1.73;100.00;99172.22;5207879;28;20024;-76
2023/03/09 01:35:09;;;;;;;106.15;28.52;;;;;;;1.79;100.00;99175.09;5225532;28;20022;-76
2023/03/09 01:37:39;;;;;;;113.15;29.70;;;;;;;1.79;100.00;99182.19;5225470;28;20017;-76
2023/03/09 01:40:16;;;;;;;112.85;29.08;;;;;;;1.76;100.00;99178.06;5224299;28;20040;-77
2023/03/09 01:42:56;;;;;;;115.57;30.52;;;;;;;1.75;100.00;99186.94;5197032;28;20061;-77
2023/03/09 01:45:27;;;;;;;111.95;31.08;;;;;;;1.77;100.00;99192.09;5219406;28;20021;-77
2023/03/09 01:47:59;;;;;;;107.97;30.23;;;;;;;1.79;100.00;99190.13;5209271;28;20037;-77
2023/03/09 01:50:34;;;;;;;134.48;33.20;;;;;;;1.77;100.00;99186.81;5189978;28;20028;-76
2023/03/09 01:53:10;;;;;;;121.88;29.35;;;;;;;1.77;100.00;99187.66;5209100;28;20453;-77
2023/03/09 01:55:45;;;;;;;135.95;33.50;;;;;;;1.76;100.00;99188.63;5189471;28;20025;-77
2023/03/09 01:58:20;;;;;;;136.85;31.40;;;;;;;1.77;100.00;99187.66;5189871;28;20425;-76
2023/03/09 02:00:54;;;;;;;126.07;30.58;;;;;;;1.77;100.00;99176.25;5207661;28;20030;-76
2023/03/09 02:03:29;;;;;;;121.63;31.17;;;;;;;1.77;100.00;99189.47;5189553;28;20025;-76
2023/03/09 02:06:15;;;;;;;124.18;31.42;;;;;;;1.75;100.00;99194.88;5211078;28;20025;-77
2023/03/09 02:09:08;;;;;;;126.35;31.67;;;;;;;1.73;100.00;99198.66;5195911;28;20432;-77
2023/03/09 02:11:39;;;;;;;131.45;31.50;;;;;;;1.74;100.00;99206.44;5216581;28;20036;-77
2023/03/09 02:14:10;;;;;;;135.57;33.60;;;;;;;1.73;100.00;99209.25;5207164;28;20021;-77
2023/03/09 02:16:41;;;;;;;143.95;35.95;;;;;;;1.74;100.00;99211.72;5211755;28;20020;-76
2023/03/09 02:19:39;;;;;;;148.18;34.22;;;;;;;1.77;100.00;99210.63;5219300;28;20115;-76
2023/03/09 02:22:10;;;;;;;133.10;33.17;;;;;;;1.75;100.00;99194.88;5221076;28;20044;-76
2023/03/09 02:25:01;;;;;;;139.25;34.22;;;;;;;1.72;100.00;99202.31;5196480;28;20021;-77
2023/03/09 02:27:33;;;;;;;134.13;34.70;;;;;;;1.72;100.00;99211.06;5218090;28;20033;-76
2023/03/09 02:30:07;;;;;;;133.63;33.85;;;;;;;1.72;100.00;99210.22;5213746;28;20025;-77
2023/03/09 02:32:37;;;;;;;139.13;34.75;;;;;;;1.72;100.00;99203.13;5215102;28;20121;-76
2023/03/09 02:35:09;;;;;;;163.60;35.80;;;;;;;1.67;100.00;99209.84;5214690;28;20029;-77
2023/03/09 02:37:40;;;;;;;160.05;37.58;;;;;;;1.66;100.00;99209.03;5204880;28;20040;-77
2023/03/09 02:40:29;;;;;;;142.55;33.75;;;;;;;1.61;100.00;99184.84;5218521;28;20029;-77
2023/03/09 02:43:02;;;;;;;130.68;32.20;;;;;;;1.63;100.00;99200.56;5213927;28;20049;-78
2023/03/09 02:45:33;;;;;;;135.63;32.90;;;;;;;1.57;100.00;99196.69;5221753;28;20024;-77
2023/03/09 02:48:04;;;;;;;134.93;33.45;;;;;;;1.55;100.00;99217.97;5221342;28;20027;-77
2023/03/09 02:50:35;;;;;;;134.65;34.40;;;;;;;1.58;100.00;99226.59;5199326;28;20029;-77
2023/03/09 02:53:05;;;;;;;127.43;34.58;;;;;;;1.55;100.00;99228.53;5204030;28;20027;-77
2023/03/09 02:55:36;;;;;;;130.35;32.50;;;;;;;1.53;100.00;99225.22;5199253;28;20022;-77
2023/03/09 02:58:06;;;;;;;134.93;31.95;;;;;;;1.53;100.00;99222.59;5220852;28;20020;-77
2023/03/09 03:00:37;;;;;;;147.20;32.08;;;;;;;1.54;100.00;99213.66;5217233;28;20033;-77
2023/03/09 03:03:09;;;;;;;130.88;33.05;;;;;;;1.52;100.00;99213.00;5220638;28;20024;-77
2023/03/09 03:05:39;;;;;;;128.35;31.70;;;;;;;1.55;100.00;99233.00;5219139;28;20029;-77
2023/03/09 03:08:10;;;;;;;122.47;30.70;;;;;;;1.57;100.00;99233.69;5201213;28;20036;-77
2023/03/09 03:10:41;;;;;;;147.38;33.78;;;;;;;1.60;100.00;99248.41;5220380;28;20025;-77
2023/03/09 03:13:12;;;;;;;133.40;32.55;;;;;;;1.60;100.00;99240.47;5218243;28;20029;-77
2023/03/09 03:15:57;;;;;;;108.10;28.98;;;;;;;1.58;100.00;99232.72;5215999;28;20101;-77
2023/03/09 03:18:28;;;;;;;122.25;30.38;;;;;;;1.58;100.00;99237.16;5220148;28;20029;-77
2023/03/09 03:20:59;;;;;;;132.63;31.10;;;;;;;1.61;100.00;99243.00;5204428;28;20108;-76
2023/03/09 03:23:30;;;;;;;133.00;32.10;;;;;;;1.64;100.00;99241.84;5220110;28;20108;-77
2023/03/09 03:26:18;;;;;;;116.38;29.67;;;;;;;1.64;100.00;99232.13;5222584;28;20021;-76
2023/03/09 03:28:49;;;;;;;118.50;30.95;;;;;;;1.65;100.00;99238.22;5211824;28;20032;-76
2023/03/09 03:31:20;;;;;;;125.40;31.02;;;;;;;1.65;100.00;99243.50;5220172;28;20045;-76
2023/03/09 03:33:50;;;;;;;119.57;31.45;;;;;;;1.66;100.00;99248.69;5205069;28;20593;-77
2023/03/09 03:36:21;;;;;;;119.82;28.92;;;;;;;1.66;100.00;99246.03;5221919;28;20108;-76
2023/03/09 03:38:51;;;;;;;112.53;29.13;;;;;;;1.66;100.00;99253.97;5223109;28;20025;-76
2023/03/09 03:41:22;;;;;;;115.40;30.02;;;;;;;1.66;100.00;99261.91;5204024;28;20079;-76
2023/03/09 03:43:52;;;;;;;123.45;29.92;;;;;;;1.67;100.00;99265.38;5213994;28;20026;-77
2023/03/09 03:46:23;;;;;;;114.57;28.83;;;;;;;1.69;100.00;99276.63;5218030;28;20496;-76
2023/03/09 03:48:53;;;;;;;105.13;29.08;;;;;;;1.68;100.00;99265.22;5200273;28;20031;-77
2023/03/09 03:51:24;;;;;;;104.68;26.95;;;;;;;1.68;100.00;99265.22;5219336;28;20021;-77
2023/03/09 03:53:55;;;;;;;103.15;25.30;;;;;;;1.70;100.00;99270.34;5218599;28;20074;-77
2023/03/09 03:56:25;;;;;;;103.65;26.50;;;;;;;1.67;100.00;99268.00;5215525;28;20644;-76
2023/03/09 03:58:56;;;;;;;109.30;28.75;;;;;;;1.64;100.00;99274.41;5200002;28;20087;-77
2023/03/09 04:01:26;;;;;;;113.18;27.60;;;;;;;1.68;100.00;99273.13;5218145;28;20104;-77
2023/03/09 04:03:57;;;;;;;121.28;27.98;;;;;;;1.72;100.00;99278.97;5202245;28;20040;-77
2023/03/09 04:06:27;;;;;;;119.13;29.42;;;;;;;1.72;100.00;99290.38;5219357;28;20096;-77
2023/03/09 04:08:58;;;;;;;128.15;31.02;;;;;;;1.74;100.00;99285.75;5215170;28;20049;-76
2023/03/09 04:11:29;;;;;;;111.72;28.50;;;;;;;1.76;100.00;99291.75;5223624;28;20029;-77
2023/03/09 04:13:59;;;;;;;130.00;31.08;;;;;;;1.76;100.00;99297.03;5215135;28;20040;-77
2023/03/09 04:16:30;;;;;;;115.20;28.85;;;;;;;1.74;100.00;99312.19;5219259;28;20431;-77
2023/03/09 04:19:00;;;;;;;131.70;30.70;;;;;;;1.75;100.00;99307.75;5205750;28;20370;-77
2023/03/09 04:21:31;;;;;;;137.35;31.80;;;;;;;1.73;100.00;99315.84;5189754;28;20111;-77
2023/03/09 04:24:01;;;;;;;135.32;31.40;;;;;;;1.74;100.00;99314.00;5210098;28;20029;-77
2023/03/09 04:26:32;;;;;;;129.55;30.90;;;;;;;1.75;100.00;99318.31;5206189;28;20056;-77
2023/03/09 04:29:02;;;;;;;116.28;29.85;;;;;;;1.73;100.00;99321.13;5209905;28;20024;-76
2023/03/09 04:31:33;;;;;;;106.88;29.10;;;;;;;1.75;100.00;99315.69;5188881;28;20032;-77
2023/03/09 04:34:03;;;;;;;123.13;29.70;;;;;;;1.75;100.00;99324.44;5192918;28;20037;-76
2023/03/09 04:36:34;;;;;;;123.68;29.10;;;;;;;1.74;100.00;99333.34;5207497;28;20045;-77
2023/03/09 04:39:04;;;;;;;104.35;28.50;;;;;;;1.74;100.00;99328.06;5214504;28;20090;-76
2023/03/09 04:41:35;;;;;;;108.22;29.67;;;;;;;1.76;100.00;99344.63;5205337;28;20393;-76
2023/03/09 04:44:06;;;;;;;102.75;28.00;;;;;;;1.74;100.00;99354.50;5210718;28;20018;-76
2023/03/09 04:46:36;;;;;;;142.68;31.35;;;;;;;1.74;100.00;99348.38;5214667;28;20639;-77
2023/03/09 04:49:07;;;;;;;128.73;31.70;;;;;;;1.72;100.00;99356.47;5202365;28;20110;-77
2023/03/09 04:51:37;;;;;;;110.70;29.38;;;;;;;1.73;100.00;99355.50;5221960;28;20032;-77
2023/03/09 04:54:08;;;;;;;119.45;29.45;;;;;;;1.70;100.00;99350.47;5202914;28;20028;-77
2023/03/09 04:56:38;;;;;;;119.63;29.25;;;;;;;1.71;100.00;99351.34;5207141;28;20032;-77
2023/03/09 04:59:09;;;;;;;134.35;30.15;;;;;;;1.68;100.00;99348.97;5226443;28;20401;-77
2023/03/09 05:01:39;;;;;;;125.45;28.70;;;;;;;1.69;100.00;99359.41;5224958;28;20465;-77
2023/03/09 05:04:10;;;;;;;110.72;26.58;;;;;;;1.69;100.00;99372.63;5226295;28;20362;-77
2023/03/09 05:06:40;;;;;;;143.95;31.75;;;;;;;1.72;100.00;99379.44;5224792;28;20681;-77
2023/03/09 05:09:14;;;;;;;121.00;30.05;;;;;;;1.72;100.00;99388.22;5226056;28;20596;-77
2023/03/09 05:11:46;;;;;;;125.53;30.00;;;;;;;1.73;100.00;99379.28;5207964;28;20049;-77
2023/03/09 05:14:16;;;;;;;112.45;28.33;;;;;;;1.74;100.00;99388.88;5226359;28;20024;-77
2023/03/09 05:17:03;;;;;;;154.65;32.38;;;;;;;1.75;100.00;99390.53;5224874;28;20032;-77
2023/03/09 05:19:36;;;;;;;125.32;30.67;;;;;;;1.77;100.00;99393.88;5225447;28;20397;-76
2023/03/09 05:22:06;;;;;;;124.78;30.42;;;;;;;1.77;100.00;99399.19;5219167;28;20625;-77
2023/03/09 05:24:37;;;;;;;125.43;30.67;;;;;;;1.80;100.00;99405.97;5198488;28;20024;-77
2023/03/09 05:27:08;;;;;;;141.25;29.85;;;;;;;1.80;100.00;99405.97;5216941;28;20102;-76
2023/03/09 05:29:39;;;;;;;127.32;30.55;;;;;;;1.80;100.00;99411.25;5199322;28;20017;-77
2023/03/09 05:32:10;;;;;;;140.70;31.80;;;;;;;1.81;100.00;99408.50;5197246;28;20025;-77
2023/03/09 05:34:40;;;;;;;132.63;30.15;;;;;;;1.78;100.00;99410.59;5217798;28;20036;-77
2023/03/09 05:37:11;;;;;;;130.80;28.55;;;;;;;1.77;100.00;99407.09;5220101;28;20021;-76
2023/03/09 05:39:41;;;;;;;142.63;30.85;;;;;;;1.75;100.00;99414.34;5201358;28;20509;-76
2023/03/09 05:42:12;;;;;;;135.15;31.88;;;;;;;1.75;100.00;99422.28;5218255;28;20025;-77
2023/03/09 05:44:43;;;;;;;117.88;29.25;;;;;;;1.75;100.00;99435.50;5222287;28;20029;-77
2023/03/09 05:47:13;;;;;;;135.05;33.03;;;;;;;1.76;100.00;99444.28;5217619;28;20017;-76
2023/03/09 05:49:44;;;;;;;123.05;30.05;;;;;;;1.76;100.00;99449.56;5196510;28;20076;-77
2023/03/09 05:52:14;;;;;;;141.20;30.88;;;;;;;1.76;100.00;99450.41;5193672;28;20056;-77
2023/03/09 05:54:45;;;;;;;142.55;31.55;;;;;;;1.76;100.00;99458.34;5213447;28;20125;-77
2023/03/09 05:57:15;;;;;;;136.65;30.77;;;;;;;1.77;100.00;99465.28;5220355;28;20078;-77
2023/03/09 05:59:47;;;;;;;141.45;28.92;;;;;;;1.76;100.00;99466.25;5211375;28;20104;-76
2023/03/09 06:02:17;;;;;;;140.38;29.50;;;;;;;1.76;100.00;99463.63;5195592;28;20559;-76
2023/03/09 06:04:50;;;;;;;133.02;28.83;;;;;;;1.78;100.00;99472.22;5210647;28;20033;-76
2023/03/09 06:07:21;;;;;;;141.75;31.38;;;;;;;1.79;100.00;99468.59;5212732;28;20036;-76
2023/03/09 06:09:51;;;;;;;140.90;29.65;;;;;;;1.78;100.00;99460.81;5209249;28;20018;-76
2023/03/09 06:12:22;;;;;;;139.05;32.33;;;;;;;1.78;100.00;99476.69;5213746;28;20032;-77
2023/03/09 06:14:52;;;;;;;149.57;31.40;;;;;;;1.78;100.00;99477.53;5209112;28;20022;-77
2023/03/09 06:17:23;;;;;;;128.63;32.83;;;;;;;1.79;100.00;99481.00;5218259;28;20052;-77
2023/03/09 06:19:53;;;;;;;113.53;30.08;;;;;;;1.80;100.00;99475.56;5210498;28;20388;-77
2023/03/09 06:22:24;;;;;;;128.65;29.52;;;;;;;1.81;100.00;99485.19;5224948;28;20127;-77
2023/03/09 06:24:54;;;;;;;130.48;30.85;;;;;;;1.80;100.00;99486.13;5224297;28;20029;-77
2023/03/09 06:27:25;;;;;;;138.77;29.67;;;;;;;1.80;100.00;99491.41;5190591;28;20050;-77
2023/03/09 06:29:55;;;;;;;126.65;32.00;;;;;;;1.81;100.00;99493.13;5206334;28;20079;-77
2023/03/09 06:32:26;;;;;;;119.03;29.80;;;;;;;1.83;100.00;99500.88;5207088;28;20021;-77
2023/03/09 06:34:56;;;;;;;109.40;29.17;;;;;;;1.83;100.00;99510.63;5224042;28;20093;-76
2023/03/09 06:37:27;;;;;;;131.55;27.88;;;;;;;1.84;100.00;99510.50;5225267;28;20025;-77
2023/03/09 06:39:57;;;;;;;132.98;29.10;;;;;;;1.84;100.00;99521.06;5206333;28;20021;-76
2023/03/09 06:42:27;;;;;;;120.15;28.83;;;;;;;1.83;100.00;99521.22;5225733;28;20048;-75
2023/03/09 06:44:58;;;;;;;130.45;31.63;;;;;;;1.83;100.00;99531.78;5209414;28;20363;-77
2023/03/09 06:47:28;;;;;;;117.63;29.80;;;;;;;1.84;100.00;99528.16;5208396;28;20489;-77
2023/03/09 06:50:05;;;;;;;127.00;29.73;;;;;;;1.86;100.00;99534.13;5212345;28;20029;-77
2023/03/09 06:52:35;;;;;;;129.57;31.23;;;;;;;1.88;100.00;99542.78;5198094;28;20033;-77
2023/03/09 06:55:06;;;;;;;115.40;30.27;;;;;;;1.91;100.00;99543.34;5209876;28;20052;-77
2023/03/09 06:57:37;;;;;;;120.70;29.77;;;;;;;1.93;100.00;99546.66;5213666;28;20826;-78
2023/03/09 07:00:09;;;;;;;131.20;30.10;;;;;;;1.95;100.00;99560.56;5212666;28;20037;-78
2023/03/09 07:02:40;;;;;;;115.05;30.55;;;;;;;1.97;100.00;99549.88;5213740;28;20126;-78
2023/03/09 07:05:11;;;;;;;153.05;32.42;;;;;;;2.02;100.00;99558.22;5214113;28;20025;-78
2023/03/09 07:07:42;;;;;;;114.57;28.55;;;;;;;2.06;100.00;99559.59;5210741;28;20099;-78
2023/03/09 07:10:13;;;;;;;124.80;29.67;;;;;;;2.10;100.00;99579.47;5201685;28;20025;-78
2023/03/09 07:12:43;;;;;;;119.88;30.20;;;;;;;2.11;100.00;99580.31;5225908;28;20021;-78
2023/03/09 07:15:14;;;;;;;122.75;27.60;;;;;;;2.12;100.00;99585.47;5202113;28;20025;-78
2023/03/09 07:17:45;;;;;;;120.38;29.25;;;;;;;2.14;100.00;99588.81;5214543;28;20021;-78
2023/03/09 07:20:15;;;;;;;104.40;28.88;;;;;;;2.11;100.00;99591.75;5204312;28;20013;-78
2023/03/09 07:22:46;;;;;;;119.65;29.48;;;;;;;2.18;100.00;99607.88;5204701;28;20063;-78
2023/03/09 07:25:17;;;;;;;111.45;29.13;;;;;;;2.23;100.00;99603.00;5192391;28;20021;-78
2023/03/09 07:27:48;;;;;;;120.90;31.15;;;;;;;2.27;100.00;99614.97;5216271;28;20033;-78
2023/03/09 07:30:19;;;;;;;106.03;27.88;;;;;;;2.32;100.00;99623.31;5215948;28;20397;-78
2023/03/09 07:32:50;;;;;;;102.22;28.50;;;;;;;2.34;100.00;99632.75;5199625;28;20029;-78
2023/03/09 07:35:20;;;;;;;103.72;29.13;;;;;;;2.36;100.00;99640.56;5186277;28;20029;-78
2023/03/09 07:37:51;;;;;;;105.00;27.80;;;;;;;2.34;100.00;99639.88;5216564;28;20477;-78
2023/03/09 07:40:21;;;;;;;93.45;28.33;;;;;;;2.39;100.00;99650.03;5198578;28;20032;-78
2023/03/09 07:42:52;;;;;;;105.32;27.98;;;;;;;2.39;100.00;99650.88;5182832;28;20100;-78
2023/03/09 07:45:23;;;;;;;102.93;28.55;;;;;;;2.44;100.00;99655.72;5217725;28;20037;-78
2023/03/09 07:47:54;;;;;;;104.97;29.02;;;;;;;2.48;100.00;99662.41;5200446;28;20029;-78
2023/03/09 07:50:24;;;;;;;103.18;27.98;;;;;;;2.58;100.00;99661.41;5219918;28;20512;-78
2023/03/09 07:52:55;;;;;;;104.75;29.05;;;;;;;2.56;100.00;99663.38;5213773;28;20297;-78
2023/03/09 07:55:26;;;;;;;100.97;27.55;;;;;;;2.58;100.00;99661.41;5217429;28;20075;-78
2023/03/09 07:57:57;;;;;;;90.50;27.70;;;;;;;2.59;100.00;99659.59;5209336;28;20516;-75
2023/03/09 08:00:28;;;;;;;105.60;28.58;;;;;;;2.68;100.00;99657.91;5196729;28;20053;-75
2023/03/09 08:02:58;;;;;;;95.07;29.27;;;;;;;2.75;100.00;99661.63;5209163;28;20108;-76
2023/03/09 08:05:29;;;;;;;100.28;28.77;;;;;;;2.78;100.00;99669.28;5177338;28;20125;-75
2023/03/09 08:07:59;;;;;;;92.85;27.17;;;;;;;2.82;100.00;99683.91;5203630;28;20039;-75
2023/03/09 08:10:30;;;;;;;112.53;29.55;;;;;;;2.83;100.00;99675.81;5215899;28;20020;-75
2023/03/09 08:13:00;;;;;;;86.88;25.40;;;;;;;2.85;100.00;99687.09;5215949;28;20025;-75
2023/03/09 08:15:31;;;;;;;84.22;27.50;;;;;;;2.82;100.00;99676.81;5193625;28;20538;-75
2023/03/09 08:18:01;;;;;;;99.57;28.38;;;;;;;2.88;100.00;99677.19;5212168;28;20025;-75
2023/03/09 08:20:32;;;;;;;93.85;27.58;;;;;;;2.97;100.00;99693.06;5215741;28;20059;-75
2023/03/09 08:23:03;;;;;;;90.75;27.83;;;;;;;3.04;100.00;99698.59;5200911;28;20028;-75
2023/03/09 08:25:33;;;;;;;98.35;28.45;;;;;;;3.07;100.00;99693.03;5198034;28;20461;-75
2023/03/09 08:28:04;;;;;;;88.03;26.38;;;;;;;3.01;100.00;99697.09;5200403;28;20017;-75
2023/03/09 08:30:36;;;;;;;82.40;24.77;;;;;;;2.94;100.00;99693.34;5220184;28;20051;-78
2023/03/09 08:33:07;;;;;;;74.38;24.30;;;;;;;3.03;100.00;99700.41;5203626;28;20021;-77
2023/03/09 08:35:37;;;;;;;78.85;23.85;;;;;;;3.10;100.00;99703.31;5208807;28;20107;-77
2023/03/09 08:38:08;;;;;;;79.13;24.77;;;;;;;3.00;100.00;99708.66;5200146;28;20024;-78
2023/03/09 08:40:39;;;;;;;73.90;24.80;;;;;;;3.05;100.00;99706.41;5221385;28;20020;-78
2023/03/09 08:43:09;;;;;;;86.85;23.80;;;;;;;3.09;100.00;99709.59;5204393;28;20082;-78
2023/03/09 08:45:40;;;;;;;87.53;25.52;;;;;;;3.01;100.00;99710.34;5204149;28;20013;-77
2023/03/09 08:48:10;;;;;;;82.97;26.25;;;;;;;3.14;100.00;99715.28;5218988;28;20622;-78
2023/03/09 08:50:41;;;;;;;83.57;25.63;;;;;;;3.20;100.00;99730.59;5215042;28;20029;-78
2023/03/09 08:53:12;;;;;;;85.35;25.92;;;;;;;3.25;100.00;99738.97;5212603;28;20028;-77
2023/03/09 08:55:42;;;;;;;78.93;23.80;;;;;;;3.20;100.00;99749.16;5223877;28;20032;-77
2023/03/09 08:58:13;;;;;;;80.70;25.13;;;;;;;3.16;100.00;99747.78;5223481;28;20524;-78
2023/03/09 09:00:43;;;;;;;83.95;22.85;;;;;;;3.05;100.00;99746.16;5225724;28;20048;-78
2023/03/09 09:03:14;;;;;;;79.88;25.58;;;;;;;3.16;100.00;99737.19;5221152;28;20053;-77
2023/03/09 09:05:44;;;;;;;88.55;26.45;;;;;;;3.27;100.00;99755.56;5215368;28;20079;-78
2023/03/09 09:08:15;;;;;;;96.22;25.58;;;;;;;3.37;100.00;99744.91;5224542;28;20099;-77
2023/03/09 09:10:45;;;;;;;83.63;23.95;;;;;;;3.34;100.00;99755.81;5222920;28;20048;-77
2023/03/09 09:13:16;;;;;;;90.65;26.52;;;;;;;3.49;100.00;99757.00;5216547;28;20035;-78
2023/03/09 09:15:52;;;;;;;93.35;26.48;;;;;;;3.61;100.00;99757.63;5219690;28;20053;-75
2023/03/09 09:18:23;;;;;;;82.40;24.77;;;;;;;3.66;100.00;99760.66;5197605;28;20401;-75
2023/03/09 09:20:53;;;;;;;91.20;26.27;;;;;;;3.73;100.00;99753.78;5217999;28;20037;-75
2023/03/09 09:23:24;;;;;;;84.80;24.83;;;;;;;3.79;100.00;99758.50;5216271;28;20030;-75
2023/03/09 09:25:55;;;;;;;78.95;23.77;;;;;;;3.82;100.00;99754.72;5206116;28;20079;-75
2023/03/09 09:28:26;;;;;;;76.50;25.65;;;;;;;3.87;100.00;99750.63;5170082;28;20096;-75
2023/03/09 09:30:58;;;;;;;73.82;23.55;;;;;;;3.93;100.00;99746.53;5188236;28;20101;-76
2023/03/09 09:33:32;;;;;;;77.55;24.70;;;;;;;4.05;100.00;99740.00;5187001;28;20025;-75
2023/03/09 09:36:10;;;;;;;70.88;23.65;;;;;;;4.08;100.00;99752.16;5191846;28;20079;-75
2023/03/09 09:38:42;;;;;;;60.83;21.80;;;;;;;3.93;100.00;99759.81;5204342;28;20026;-75
2023/03/09 09:41:17;;;;;;;69.78;23.42;;;;;;;4.00;100.00;99758.22;5217359;28;20433;-75
2023/03/09 09:43:51;;;;;;;64.90;21.42;;;;;;;4.01;100.00;99764.34;5216184;28;20029;-75
2023/03/09 09:46:22;;;;;;;65.88;22.52;;;;;;;4.05;100.00;99773.69;5216817;28;20029;-74
2023/03/09 09:48:53;;;;;;;74.65;25.65;;;;;;;4.00;100.00;99768.81;5210776;28;20024;-75
2023/03/09 09:51:53;;;;;;;73.53;23.85;;;;;;;3.94;100.00;99772.09;5182082;28;20208;-75
2023/03/09 09:54:25;;;;;;;80.70;24.20;;;;;;;3.98;100.00;99768.16;5207569;28;20032;-75
2023/03/09 09:56:59;;;;;;;74.18;23.30;;;;;;;3.97;100.00;99769.16;5191261;28;20486;-75
2023/03/09 09:59:43;;;;;;;74.45;25.35;;;;;;;4.02;100.00;99755.44;5200889;28;20033;-75
2023/03/09 10:02:50;;;;;;;88.18;26.48;;;;;;;4.09;100.00;99775.91;5208506;28;20028;-75
2023/03/09 10:05:51;;;;;;;79.95;25.52;;;;;;;3.98;100.00;99772.63;5217617;28;20025;-75
2023/03/09 10:08:25;;;;;;;82.05;25.98;;;;;;;4.06;100.00;99770.03;5191272;28;20026;-75
2023/03/09 10:11:05;;;;;;;84.07;24.75;;;;;;;4.12;100.00;99767.63;5216524;28;20033;-75
2023/03/09 10:13:42;;;;;;;65.35;21.15;;;;;;;4.07;100.00;99756.66;5190175;28;20095;-75
2023/03/09 10:16:21;;;;;;;66.07;21.73;;;;;;;4.15;100.00;99758.53;5209236;28;20032;-75
2023/03/09 10:18:57;;;;;;;69.90;23.17;;;;;;;4.07;100.00;99761.13;5197023;28;20021;-75
2023/03/09 10:21:40;;;;;;;80.32;23.90;;;;;;;4.15;100.00;99756.69;5194262;28;20100;-74
2023/03/09 10:24:19;;;;;;;72.00;22.98;;;;;;;4.31;100.00;99753.34;5215629;28;20033;-75
2023/03/09 10:26:57;;;;;;;74.88;23.90;;;;;;;4.40;100.00;99757.75;5214256;28;20047;-75
2023/03/09 10:29:51;;;;;;;76.60;25.38;;;;;;;4.41;100.00;99747.97;5212909;28;20033;-75
2023/03/09 10:32:36;;;;;;;71.75;23.58;;;;;;;4.44;100.00;99744.19;5192774;28;20029;-74
2023/03/09 10:35:31;;;;;;;88.63;26.77;;;;;;;4.54;100.00;99742.28;5210356;28;20025;-74
2023/03/09 10:38:02;;;;;;;71.35;24.58;;;;;;;4.61;100.00;99738.00;5218387;28;20502;-75
2023/03/09 10:40:42;;;;;;;71.38;23.95;;;;;;;4.72;100.00;99743.09;5194604;28;20040;-75
2023/03/09 10:43:22;;;;;;;86.28;26.75;;;;;;;4.84;100.00;99743.66;5210733;28;20017;-75
2023/03/09 10:45:55;;;;;;;83.57;26.15;;;;;;;4.88;100.00;99737.03;5192504;28;20021;-75
2023/03/09 10:48:26;;;;;;;77.30;26.48;;;;;;;4.87;100.00;99743.31;5207749;28;20061;-75
2023/03/09 10:51:02;;;;;;;79.70;24.95;;;;;;;4.80;100.00;99748.44;5211751;28;20043;-76
2023/03/09 10:53:53;;;;;;;73.30;24.65;;;;;;;4.80;100.00;99748.44;5218823;28;20025;-75
2023/03/09 10:56:28;;;;;;;93.35;28.05;;;;;;;4.84;100.00;99743.66;5218304;28;20017;-75
2023/03/09 10:59:15;;;;;;;87.50;26.02;;;;;;;4.82;100.00;99748.25;5214757;28;20057;-75
2023/03/09 11:01:51;;;;;;;70.68;24.05;;;;;;;4.69;100.00;99751.34;5218126;28;20025;-75
2023/03/09 11:04:21;;;;;;;74.68;24.33;;;;;;;4.67;100.00;99735.56;5203140;28;20108;-76
2023/03/09 11:07:27;;;;;;;85.25;26.02;;;;;;;4.70;100.00;99736.25;5216170;28;20117;-76
2023/03/09 11:10:02;;;;;;;89.20;27.75;;;;;;;4.71;100.00;99736.06;5218561;28;20481;-76
2023/03/09 11:12:39;;;;;;;87.32;27.85;;;;;;;4.79;100.00;99741.47;5220511;28;20025;-76
2023/03/09 11:15:29;;;;;;;73.50;24.42;;;;;;;4.92;100.00;99741.06;5215274;28;20037;-76
2023/03/09 11:18:02;;;;;;;81.47;24.98;;;;;;;4.99;100.00;99742.09;5219480;28;20114;-76
2023/03/09 11:20:34;;;;;;;86.28;25.45;;;;;;;5.10;100.00;99731.16;5199616;28;20068;-76
2023/03/09 11:23:25;;;;;;;84.28;26.67;;;;;;;5.20;100.00;99725.75;5221120;28;20506;-77
2023/03/09 11:26:00;;;;;;;85.18;25.92;;;;;;;5.25;100.00;99720.78;5206765;28;20032;-77
2023/03/09 11:28:53;;;;;;;73.03;23.25;;;;;;;5.35;100.00;99725.97;5202577;28;20070;-76
2023/03/09 11:31:31;;;;;;;84.78;25.58;;;;;;;5.37;100.00;99724.84;5221021;28;20035;-77
2023/03/09 11:34:06;;;;;;;67.90;24.05;;;;;;;5.33;100.00;99717.34;5223433;28;20440;-77
2023/03/09 11:36:43;;;;;;;73.28;23.88;;;;;;;5.29;100.00;99715.97;5188206;28;20096;-76
2023/03/09 11:39:35;;;;;;;70.50;22.95;;;;;;;5.32;100.00;99710.31;5223843;28;20028;-77
2023/03/09 11:42:12;;;;;;;67.03;22.38;;;;;;;5.30;100.00;99707.84;5204606;28;20024;-77